Time;durP1;ratioP1;P1;durP2;ratioP2;P2;SDS_P1;SDS_P2;PMS_P1;PMS_P2;Temp;Humidity;BMP_temperature;BMP_pressure;BME280_temperature;BME280_humidity;BME280_pressure;Samples;Min_cycle;Max_cycle;Signal;HPM_P1;HPM_P2
2021/09/30 00:00:00;;;;;;;4.53;1.70;;;11.90;99.90;;;;;;5067839;28;20101;-76
2021/09/30 00:02:26;;;;;;;10.10;1.92;;;12.00;99.90;;;;;;5068294;28;20021;-77
2021/09/30 00:04:52;;;;;;;3.85;1.90;;;12.00;99.90;;;;;;5071664;28;20161;-77
2021/09/30 00:07:19;;;;;;;4.95;2.00;;;11.90;99.90;;;;;;5068297;28;20021;-77
2021/09/30 00:09:46;;;;;;;4.15;1.77;;;12.00;99.90;;;;;;5067637;28;20031;-77
2021/09/30 00:12:20;;;;;;;6.25;2.13;;;11.90;99.90;;;;;;5066572;28;20052;-76
2021/09/30 00:33:42;;;;;;;4.25;1.75;;;11.70;99.90;;;;;;5066676;28;20036;-76
2021/09/30 00:46:54;;;;;;;4.25;1.83;;;11.70;99.90;;;;;;5070133;28;20043;-76
2021/09/30 00:52:29;;;;;;;3.80;1.98;;;11.70;99.90;;;;;;5072263;28;20540;-76
2021/09/30 01:46:25;;;;;;;5.22;2.60;;;11.60;99.90;;;;;;5076102;28;20062;-77
2021/09/30 02:20:20;;;;;;;5.05;2.15;;;11.30;99.90;;;;;;5073680;28;20035;-76
2021/09/30 02:39:12;;;;;;;5.43;2.17;;;11.40;99.90;;;;;;5073148;28;20132;-76
2021/09/30 02:58:41;;;;;;;7.95;2.22;;;11.30;99.90;;;;;;5074590;28;20086;-78
2021/09/30 03:01:27;;;;;;;8.38;2.42;;;11.30;99.90;;;;;;5072069;28;20023;-79
2021/09/30 03:03:55;;;;;;;12.85;2.55;;;11.20;99.90;;;;;;5072183;28;20086;-79
2021/09/30 03:06:22;;;;;;;7.78;2.05;;;11.30;99.90;;;;;;5074785;28;20063;-79
2021/09/30 03:08:51;;;;;;;6.65;1.88;;;11.30;99.90;;;;;;5070627;28;20017;-79
2021/09/30 03:11:20;;;;;;;6.63;1.90;;;11.30;99.90;;;;;;5072775;28;20074;-78
2021/09/30 03:13:48;;;;;;;9.52;2.17;;;11.20;99.90;;;;;;5074888;28;20029;-79
2021/09/30 03:16:30;;;;;;;5.63;1.88;;;11.20;99.90;;;;;;5072848;28;20078;-78
2021/09/30 03:18:59;;;;;;;8.77;2.35;;;11.30;99.90;;;;;;5074239;28;20072;-79
2021/09/30 03:24:13;;;;;;;6.82;2.03;;;11.20;99.90;;;;;;5070171;28;20558;-77
2021/09/30 03:26:39;;;;;;;7.28;1.52;;;11.10;99.90;;;;;;5055505;28;20043;-77
2021/09/30 03:29:06;;;;;;;7.70;2.03;;;11.20;99.90;;;;;;5076671;28;20390;-79
2021/09/30 03:31:33;;;;;;;5.38;1.80;;;11.20;99.90;;;;;;5072416;28;20028;-79
2021/09/30 03:33:59;;;;;;;7.90;2.10;;;11.20;99.90;;;;;;5077186;28;20108;-78
2021/09/30 03:36:26;;;;;;;8.25;1.80;;;11.10;99.90;;;;;;5073605;28;20032;-79
2021/09/30 03:38:52;;;;;;;6.45;1.70;;;11.10;99.90;;;;;;5077620;28;20488;-79
2021/09/30 03:41:18;;;;;;;5.10;1.92;;;11.00;99.90;;;;;;5072726;28;20094;-79
2021/09/30 03:43:44;;;;;;;4.97;1.80;;;11.10;99.90;;;;;;5072442;28;20032;-79
2021/09/30 03:46:10;;;;;;;6.38;1.67;;;11.10;99.90;;;;;;5066015;28;20044;-78
2021/09/30 03:48:36;;;;;;;8.23;1.63;;;11.00;99.90;;;;;;5077317;28;20023;-79
2021/09/30 04:01:23;;;;;;;7.47;3.15;;;10.90;99.90;;;;;;5072340;28;20112;-79
2021/09/30 04:03:48;;;;;;;7.25;3.75;;;10.80;99.90;;;;;;5076731;28;20087;-77
2021/09/30 04:06:14;;;;;;;11.75;3.75;;;10.90;99.90;;;;;;5070225;28;20024;-79
2021/09/30 04:08:40;;;;;;;8.80;3.38;;;10.90;99.90;;;;;;5076893;28;20017;-79
2021/09/30 04:11:06;;;;;;;12.00;3.95;;;10.90;99.90;;;;;;5075974;28;20498;-79
2021/09/30 04:13:31;;;;;;;15.85;3.95;;;10.90;99.90;;;;;;5076861;28;20024;-79
2021/09/30 04:15:57;;;;;;;11.35;3.60;;;10.90;99.90;;;;;;5076568;28;20078;-79
2021/09/30 04:18:23;;;;;;;7.70;3.10;;;10.80;99.90;;;;;;5073736;28;20021;-79
2021/09/30 04:20:48;;;;;;;12.40;3.20;;;10.80;99.90;;;;;;5080811;28;20033;-75
2021/09/30 04:23:14;;;;;;;12.02;3.47;;;10.80;99.90;;;;;;5072859;28;20028;-79
2021/09/30 04:25:40;;;;;;;7.13;3.13;;;10.90;99.90;;;;;;5069233;28;20068;-78
2021/09/30 04:28:05;;;;;;;7.60;3.30;;;10.80;99.90;;;;;;5064696;28;20017;-79
2021/09/30 04:30:32;;;;;;;6.20;3.08;;;10.80;99.90;;;;;;5055679;28;20536;-78
2021/09/30 04:32:57;;;;;;;5.20;2.22;;;10.80;99.90;;;;;;5074622;28;20042;-79
2021/09/30 04:35:23;;;;;;;5.55;2.55;;;10.80;99.90;;;;;;5075582;28;20062;-78
2021/09/30 04:37:49;;;;;;;7.57;2.47;;;10.80;99.90;;;;;;5069370;28;20021;-76
2021/09/30 04:40:15;;;;;;;5.05;2.42;;;10.80;99.90;;;;;;5069853;28;20029;-78
2021/09/30 04:42:41;;;;;;;8.80;2.22;;;10.70;99.90;;;;;;5078796;28;20020;-79
2021/09/30 04:45:08;;;;;;;6.50;2.20;;;10.70;99.90;;;;;;5071242;28;20124;-79
2021/09/30 04:47:33;;;;;;;13.93;2.85;;;10.70;99.90;;;;;;5068526;28;20031;-78
2021/09/30 04:49:59;;;;;;;9.98;3.28;;;10.70;99.90;;;;;;5073210;28;20111;-79
2021/09/30 04:52:25;;;;;;;8.02;2.63;;;10.70;99.90;;;;;;5069098;28;20418;-79
2021/09/30 04:54:51;;;;;;;7.35;2.53;;;10.70;99.90;;;;;;5069098;28;20031;-79
2021/09/30 04:57:17;;;;;;;8.70;2.28;;;10.70;99.90;;;;;;5070226;28;20496;-77
2021/09/30 04:59:43;;;;;;;5.30;2.67;;;10.70;99.90;;;;;;5068672;28;20032;-77
2021/09/30 05:02:09;;;;;;;9.60;2.70;;;10.70;99.90;;;;;;5067966;28;20021;-78
2021/09/30 05:04:34;;;;;;;5.07;2.30;;;10.50;99.90;;;;;;5077554;28;20032;-77
2021/09/30 05:07:00;;;;;;;5.97;2.63;;;10.50;99.90;;;;;;5071156;28;20027;-77
2021/09/30 05:09:27;;;;;;;7.65;3.22;;;10.50;99.90;;;;;;5075149;28;20031;-77
2021/09/30 05:11:56;;;;;;;6.32;2.95;;;10.50;99.90;;;;;;5072906;28;20032;-78
2021/09/30 05:14:23;;;;;;;11.30;3.90;;;10.50;99.90;;;;;;5076290;28;20027;-78
2021/09/30 05:16:49;;;;;;;9.32;3.78;;;10.50;99.90;;;;;;5077579;28;20051;-76
2021/09/30 05:19:16;;;;;;;9.70;3.30;;;10.50;99.90;;;;;;5075169;28;20031;-77
2021/09/30 05:21:42;;;;;;;11.52;3.90;;;10.50;99.90;;;;;;5074391;28;20020;-77
2021/09/30 05:24:07;;;;;;;10.80;3.33;;;10.50;99.90;;;;;;5074212;28;20032;-78
2021/09/30 05:26:34;;;;;;;6.18;2.90;;;10.40;99.90;;;;;;5071268;28;20107;-77
2021/09/30 05:29:00;;;;;;;6.95;2.85;;;10.50;99.90;;;;;;5071207;28;20036;-78
2021/09/30 05:31:27;;;;;;;5.03;2.42;;;10.50;99.90;;;;;;5049774;28;20036;-76
2021/09/30 05:33:54;;;;;;;9.73;3.20;;;10.50;99.90;;;;;;5060491;28;20029;-77
2021/09/30 05:36:20;;;;;;;7.97;3.35;;;10.40;99.90;;;;;;5067720;28;20024;-75
2021/09/30 05:38:46;;;;;;;4.22;2.95;;;10.40;99.90;;;;;;5071083;28;20121;-76
2021/09/30 05:41:12;;;;;;;10.77;3.13;;;10.40;99.90;;;;;;5071223;28;20481;-76
2021/09/30 05:43:40;;;;;;;7.47;2.90;;;10.30;99.90;;;;;;5070170;28;20059;-76
2021/09/30 05:46:09;;;;;;;7.15;2.78;;;10.30;99.90;;;;;;5069383;28;20021;-76
2021/09/30 05:48:35;;;;;;;9.02;3.05;;;10.30;99.90;;;;;;5070758;28;20025;-76
2021/09/30 05:51:00;;;;;;;8.90;3.00;;;10.30;99.90;;;;;;5071228;28;20098;-77
2021/09/30 05:53:26;;;;;;;8.20;3.13;;;10.30;99.90;;;;;;5073959;28;20604;-76
2021/09/30 05:55:52;;;;;;;12.68;2.75;;;10.20;99.90;;;;;;5067132;28;20475;-77
2021/09/30 05:58:18;;;;;;;7.40;3.28;;;10.30;99.90;;;;;;5065112;28;20032;-76
2021/09/30 06:14:01;;;;;;;10.90;3.58;;;10.30;99.90;;;;;;5072845;28;20761;-82
2021/09/30 06:16:27;;;;;;;10.02;2.92;;;10.30;99.90;;;;;;5070174;28;20124;-77
2021/09/30 06:18:53;;;;;;;14.15;4.00;;;10.30;99.90;;;;;;5066702;28;20104;-76
2021/09/30 06:21:19;;;;;;;10.07;3.63;;;10.40;99.90;;;;;;5071930;28;20502;-75
2021/09/30 06:23:44;;;;;;;7.90;3.58;;;10.40;99.90;;;;;;5070848;28;20052;-75
2021/09/30 06:26:10;;;;;;;8.70;3.70;;;10.30;99.90;;;;;;5065019;28;20047;-75
2021/09/30 06:28:36;;;;;;;8.20;3.78;;;10.30;99.90;;;;;;5071202;28;20063;-76
2021/09/30 06:31:02;;;;;;;9.90;3.80;;;10.30;99.90;;;;;;5072534;28;20029;-75
2021/09/30 06:33:30;;;;;;;10.70;3.35;;;10.40;99.90;;;;;;5074428;28;20031;-74
2021/09/30 06:35:56;;;;;;;8.60;3.65;;;10.40;99.90;;;;;;5073882;28;20052;-75
2021/09/30 06:38:22;;;;;;;11.23;3.63;;;10.40;99.90;;;;;;5072845;28;20109;-75
2021/09/30 06:40:48;;;;;;;8.65;3.35;;;10.50;99.90;;;;;;5072020;28;20540;-75
2021/09/30 06:43:14;;;;;;;10.52;4.38;;;10.50;99.90;;;;;;5061777;28;20053;-75
2021/09/30 06:45:40;;;;;;;8.00;3.70;;;10.50;99.90;;;;;;5068635;28;20492;-76
2021/09/30 06:48:06;;;;;;;10.00;3.50;;;10.50;99.90;;;;;;5060827;28;20128;-77
2021/09/30 06:50:32;;;;;;;12.85;4.18;;;10.50;99.90;;;;;;5066499;28;20447;-77
2021/09/30 06:53:01;;;;;;;9.20;3.60;;;10.60;99.90;;;;;;5065379;28;20104;-77
2021/09/30 06:55:27;;;;;;;8.93;3.20;;;10.60;99.90;;;;;;5064296;28;20491;-77
2021/09/30 06:57:52;;;;;;;12.30;4.15;;;10.60;99.90;;;;;;5067740;28;20106;-77
2021/09/30 07:00:19;;;;;;;8.70;3.40;;;10.50;99.90;;;;;;5066724;28;20096;-77
2021/09/30 07:02:46;;;;;;;12.55;3.60;;;10.60;99.90;;;;;;5065125;28;20064;-76
2021/09/30 07:05:14;;;;;;;7.70;3.58;;;10.70;99.90;;;;;;5063599;28;20040;-76
2021/09/30 07:07:41;;;;;;;10.30;3.30;;;10.70;99.90;;;;;;5068327;28;20024;-77
2021/09/30 07:10:09;;;;;;;13.40;3.85;;;10.70;99.90;;;;;;5073169;28;20056;-76
2021/09/30 07:12:39;;;;;;;10.27;3.40;;;10.70;99.90;;;;;;5072377;28;20099;-76
2021/09/30 07:15:06;;;;;;;10.82;3.83;;;10.70;99.90;;;;;;5072897;28;20025;-80
2021/09/30 07:17:32;;;;;;;12.32;3.53;;;10.80;99.90;;;;;;5067037;28;20104;-78
2021/09/30 07:19:58;;;;;;;9.25;3.40;;;10.80;99.90;;;;;;5071965;28;20060;-78
2021/09/30 07:22:25;;;;;;;13.25;3.67;;;10.80;99.90;;;;;;5072741;28;20469;-77
2021/09/30 07:24:51;;;;;;;10.50;3.70;;;10.80;99.90;;;;;;5071249;28;20068;-78
2021/09/30 07:27:17;;;;;;;11.85;3.80;;;10.80;99.90;;;;;;5072146;28;20029;-77
2021/09/30 07:29:43;;;;;;;10.23;3.67;;;10.90;99.90;;;;;;5070222;28;20020;-78
2021/09/30 07:32:09;;;;;;;11.32;3.95;;;11.00;99.90;;;;;;5071323;28;20511;-77
2021/09/30 07:34:35;;;;;;;7.47;3.53;;;11.00;99.90;;;;;;5052118;28;20491;-78
2021/09/30 07:37:01;;;;;;;9.05;3.00;;;11.10;99.90;;;;;;5069748;28;20025;-77
2021/09/30 07:39:29;;;;;;;9.27;3.58;;;11.20;99.90;;;;;;5071108;28;20032;-77
2021/09/30 07:41:56;;;;;;;9.73;3.97;;;11.20;99.90;;;;;;5065375;28;20016;-77
2021/09/30 07:44:21;;;;;;;8.05;3.05;;;11.40;99.90;;;;;;5065221;28;20456;-78
2021/09/30 07:46:47;;;;;;;8.70;2.90;;;11.30;99.90;;;;;;5067590;28;20048;-76
2021/09/30 07:49:14;;;;;;;8.63;3.53;;;11.30;99.90;;;;;;5080990;28;20032;-76
2021/09/30 07:51:40;;;;;;;7.13;3.08;;;11.40;99.90;;;;;;5078554;28;20048;-77
2021/09/30 07:54:08;;;;;;;13.32;3.63;;;11.40;99.90;;;;;;5072368;28;20021;-77
2021/09/30 07:56:34;;;;;;;12.43;3.92;;;11.40;99.90;;;;;;5074599;28;20062;-77
2021/09/30 07:59:00;;;;;;;12.40;3.53;;;11.50;99.90;;;;;;5069039;28;20028;-77
2021/09/30 08:01:26;;;;;;;10.45;3.45;;;11.50;99.90;;;;;;5066849;28;20108;-78
2021/09/30 08:03:52;;;;;;;8.38;3.58;;;11.50;99.90;;;;;;5067705;28;20020;-76
2021/09/30 08:06:19;;;;;;;9.40;3.40;;;11.70;99.90;;;;;;5075910;28;20033;-78
2021/09/30 08:08:45;;;;;;;14.13;3.78;;;11.70;99.90;;;;;;5070194;28;20059;-77
2021/09/30 08:11:11;;;;;;;9.70;3.47;;;11.70;99.90;;;;;;5074937;28;20044;-77
2021/09/30 08:13:37;;;;;;;10.82;3.45;;;11.80;99.90;;;;;;5074839;28;20118;-78
2021/09/30 08:16:04;;;;;;;15.77;3.33;;;11.80;99.90;;;;;;5078413;28;20383;-76
2021/09/30 08:18:30;;;;;;;9.55;3.22;;;11.90;99.90;;;;;;5067357;28;20020;-77
2021/09/30 08:20:56;;;;;;;19.23;3.15;;;12.00;99.90;;;;;;5070627;28;20021;-77
2021/09/30 08:23:24;;;;;;;6.45;2.85;;;12.10;99.90;;;;;;5069082;28;20043;-78
2021/09/30 08:25:50;;;;;;;10.40;3.17;;;12.10;99.90;;;;;;5073415;28;20032;-77
2021/09/30 08:28:17;;;;;;;10.38;3.70;;;12.20;99.90;;;;;;5075569;28;20016;-77
2021/09/30 08:30:43;;;;;;;10.30;3.22;;;12.30;99.90;;;;;;5070259;28;20532;-78
2021/09/30 08:33:10;;;;;;;15.02;3.67;;;12.30;99.90;;;;;;5075622;28;20029;-77
2021/09/30 08:35:37;;;;;;;11.48;3.10;;;12.40;99.90;;;;;;5071372;28;20016;-77
2021/09/30 08:38:03;;;;;;;12.57;3.25;;;12.40;99.90;;;;;;5081102;28;20063;-77
2021/09/30 08:40:28;;;;;;;9.95;3.05;;;12.50;99.90;;;;;;5070328;28;20477;-78
2021/09/30 08:42:55;;;;;;;10.95;3.53;;;12.60;99.90;;;;;;5085441;28;20028;-77
2021/09/30 08:45:21;;;;;;;11.82;3.60;;;12.60;99.90;;;;;;5066197;28;20065;-77
2021/09/30 08:48:07;;;;;;;8.82;2.70;;;12.70;99.90;;;;;;5068600;28;20534;-77
2021/09/30 08:50:38;;;;;;;10.98;3.45;;;12.90;99.90;;;;;;5065571;28;20025;-77
2021/09/30 08:53:13;;;;;;;13.70;3.38;;;13.00;99.90;;;;;;5067568;28;20107;-84
2021/09/30 08:55:40;;;;;;;13.25;4.15;;;13.00;99.90;;;;;;5065422;28;20759;-77
2021/09/30 08:58:07;;;;;;;11.25;3.45;;;13.00;99.90;;;;;;5066269;28;20473;-77
2021/09/30 09:00:35;;;;;;;10.75;3.25;;;13.00;99.90;;;;;;5071924;28;20013;-77
2021/09/30 09:03:01;;;;;;;9.93;3.30;;;13.10;99.90;;;;;;5067934;28;20550;-78
2021/09/30 09:05:27;;;;;;;7.22;3.13;;;13.00;99.90;;;;;;5067867;28;20033;-77
2021/09/30 09:07:58;;;;;;;7.80;2.90;;;13.00;99.90;;;;;;5067041;28;20030;-77
2021/09/30 09:10:31;;;;;;;11.20;3.00;;;13.20;99.90;;;;;;5066071;28;20048;-77
2021/09/30 09:13:15;;;;;;;10.35;3.33;;;13.30;99.90;;;;;;5057330;28;20024;-78
2021/09/30 09:15:45;;;;;;;6.43;2.90;;;13.30;99.90;;;;;;5068406;28;20111;-77
2021/09/30 09:18:22;;;;;;;7.10;3.13;;;13.40;99.90;;;;;;5065111;28;20027;-77
2021/09/30 09:21:04;;;;;;;9.60;2.88;;;13.50;99.90;;;;;;5070367;28;20104;-77
2021/09/30 09:23:39;;;;;;;12.13;3.85;;;13.60;99.90;;;;;;5073754;28;20077;-77
2021/09/30 09:26:14;;;;;;;8.32;3.95;;;13.70;99.90;;;;;;5072404;28;20028;-77
2021/09/30 09:29:00;;;;;;;9.07;3.08;;;13.70;99.90;;;;;;5074019;28;20119;-76
2021/09/30 09:31:31;;;;;;;11.40;2.78;;;13.80;99.90;;;;;;5079230;28;20013;-78
2021/09/30 09:33:56;;;;;;;8.52;2.47;;;13.90;99.90;;;;;;5072620;28;20016;-77
2021/09/30 09:36:25;;;;;;;13.13;3.00;;;14.00;99.90;;;;;;5076750;28;20028;-77
2021/09/30 09:38:54;;;;;;;9.35;2.90;;;14.00;99.90;;;;;;5073757;28;20477;-78
2021/09/30 09:41:38;;;;;;;7.22;2.72;;;14.10;99.90;;;;;;5073643;28;20021;-78
2021/09/30 09:44:05;;;;;;;11.70;2.92;;;14.40;99.90;;;;;;5067347;28;20055;-78
2021/09/30 09:46:37;;;;;;;10.45;3.20;;;14.40;99.90;;;;;;5072010;28;20113;-78
2021/09/30 09:49:14;;;;;;;12.88;3.10;;;14.40;99.90;;;;;;5075492;28;20047;-77
2021/09/30 09:51:45;;;;;;;13.10;2.90;;;14.40;99.90;;;;;;5077426;28;20433;-77
2021/09/30 09:54:13;;;;;;;9.77;3.03;;;14.50;99.90;;;;;;5074687;28;20016;-78
2021/09/30 09:56:40;;;;;;;8.77;3.45;;;14.50;99.90;;;;;;5076007;28;20036;-77
2021/09/30 09:59:05;;;;;;;10.85;2.80;;;14.50;99.90;;;;;;5075255;28;20381;-77
2021/09/30 10:01:45;;;;;;;9.70;2.78;;;14.40;99.90;;;;;;5077347;28;20028;-77
2021/09/30 10:04:13;;;;;;;12.88;3.25;;;14.50;99.90;;;;;;5062165;28;20541;-78
2021/09/30 10:06:40;;;;;;;13.02;3.58;;;14.60;99.90;;;;;;5069353;28;20062;-77
2021/09/30 10:09:08;;;;;;;11.57;3.30;;;14.70;99.90;;;;;;5069605;28;20099;-78
2021/09/30 10:11:35;;;;;;;10.50;2.70;;;14.80;99.90;;;;;;5071960;28;20027;-77
2021/09/30 10:14:04;;;;;;;10.23;2.95;;;14.90;99.90;;;;;;5070048;28;20028;-78
2021/09/30 10:16:30;;;;;;;10.35;2.58;;;15.00;99.90;;;;;;5062902;28;20108;-77
2021/09/30 10:18:58;;;;;;;8.65;2.40;;;15.10;99.90;;;;;;5064981;28;20484;-77
2021/09/30 10:21:26;;;;;;;7.53;2.30;;;15.20;99.90;;;;;;5065559;28;20048;-78
2021/09/30 10:23:57;;;;;;;9.77;2.45;;;15.40;99.90;;;;;;5064823;28;20548;-79
2021/09/30 10:26:29;;;;;;;14.05;2.53;;;15.50;99.90;;;;;;5063171;28;20473;-77
2021/09/30 10:28:55;;;;;;;7.13;2.80;;;15.60;99.90;;;;;;5065089;28;20020;-77
2021/09/30 10:31:34;;;;;;;6.90;2.35;;;15.70;99.90;;;;;;5067731;28;20028;-77
2021/09/30 10:34:06;;;;;;;8.73;2.30;;;15.70;99.90;;;;;;5068309;28;20020;-78
2021/09/30 10:36:47;;;;;;;10.10;3.20;;;15.80;99.90;;;;;;5067213;28;20021;-78
2021/09/30 10:39:17;;;;;;;10.65;2.35;;;15.90;99.90;;;;;;5069341;28;20102;-78
2021/09/30 10:41:43;;;;;;;9.75;2.53;;;15.90;99.90;;;;;;5068623;28;20036;-78
2021/09/30 10:44:18;;;;;;;12.45;2.75;;;15.90;99.90;;;;;;5072141;28;20208;-78
2021/09/30 10:46:49;;;;;;;9.60;2.28;;;16.00;99.90;;;;;;5068028;28;20473;-78
2021/09/30 10:49:27;;;;;;;7.10;2.47;;;16.10;99.90;;;;;;5068378;28;20388;-79
2021/09/30 10:52:12;;;;;;;13.27;2.70;;;16.00;99.90;;;;;;5074975;28;20023;-79
2021/09/30 10:54:42;;;;;;;6.97;2.53;;;16.00;99.90;;;;;;5069964;28;20085;-78
2021/09/30 10:57:35;;;;;;;7.53;2.45;;;16.00;99.90;;;;;;5069266;28;20820;-78
2021/09/30 11:00:12;;;;;;;8.43;1.85;;;16.00;99.90;;;;;;5068958;28;20135;-78
2021/09/30 11:03:09;;;;;;;6.43;2.35;;;16.10;99.90;;;;;;5067604;28;20021;-80
2021/09/30 11:05:37;;;;;;;10.13;1.73;;;16.20;99.90;;;;;;5065454;28;20044;-78
2021/09/30 11:08:25;;;;;;;7.75;1.60;;;16.20;99.90;;;;;;5068151;28;20024;-79
2021/09/30 11:11:06;;;;;;;5.82;1.85;;;16.20;99.90;;;;;;5075126;28;20078;-79
2021/09/30 11:13:35;;;;;;;7.80;2.05;;;16.20;99.90;;;;;;5073664;28;20032;-78
2021/09/30 11:16:09;;;;;;;7.05;1.55;;;16.00;99.90;;;;;;5067890;28;20591;-78
2021/09/30 11:18:48;;;;;;;6.93;1.98;;;16.00;99.90;;;;;;5062899;28;20020;-78
2021/09/30 11:21:32;;;;;;;6.93;1.60;;;16.10;99.90;;;;;;5064666;28;20013;-79
2021/09/30 11:24:02;;;;;;;6.22;1.70;;;16.10;99.90;;;;;;5070090;28;20069;-80
2021/09/30 11:26:32;;;;;;;10.48;2.05;;;16.30;99.90;;;;;;5066726;28;20044;-79
2021/09/30 11:31:57;;;;;;;9.23;1.77;;;16.40;99.90;;;;;;5060185;28;20070;-79
2021/09/30 11:34:29;;;;;;;5.32;1.38;;;16.40;99.90;;;;;;5061245;28;20032;-80
2021/09/30 11:37:15;;;;;;;5.30;1.50;;;16.50;99.90;;;;;;5061400;28;20381;-80
2021/09/30 11:39:41;;;;;;;7.50;1.77;;;16.50;99.90;;;;;;5063354;28;20075;-80
2021/09/30 11:42:07;;;;;;;8.10;1.75;;;16.40;99.90;;;;;;5068239;28;20012;-80
2021/09/30 11:44:33;;;;;;;6.15;1.60;;;16.50;99.90;;;;;;5067468;28;20040;-80
2021/09/30 11:47:00;;;;;;;8.57;1.70;;;16.40;99.90;;;;;;5065598;28;20532;-80
2021/09/30 11:49:27;;;;;;;7.30;1.95;;;16.40;99.90;;;;;;5068040;28;20025;-79
2021/09/30 11:51:58;;;;;;;12.35;2.25;;;16.40;99.90;;;;;;5067707;28;20066;-79
2021/09/30 11:54:34;;;;;;;11.43;2.85;;;16.30;99.90;;;;;;5067624;28;20025;-81
2021/09/30 11:57:00;;;;;;;10.75;2.25;;;16.40;99.90;;;;;;5063672;28;20837;-79
2021/09/30 11:59:29;;;;;;;9.07;1.95;;;16.30;99.90;;;;;;5066246;28;20050;-79
2021/09/30 12:01:57;;;;;;;9.55;2.15;;;16.30;99.90;;;;;;5067538;28;20008;-80
2021/09/30 12:04:38;;;;;;;10.45;2.65;;;16.30;99.90;;;;;;5067599;28;20083;-78
2021/09/30 12:07:04;;;;;;;9.13;2.17;;;16.30;99.90;;;;;;5066227;28;20012;-78
2021/09/30 12:09:34;;;;;;;10.20;2.08;;;16.30;99.90;;;;;;5060053;28;20655;-79
2021/09/30 12:12:05;;;;;;;6.88;1.83;;;16.30;99.90;;;;;;5064271;28;20028;-80
2021/09/30 12:14:52;;;;;;;6.95;1.60;;;16.30;99.90;;;;;;5070494;28;20020;-79
2021/09/30 12:17:20;;;;;;;9.60;2.17;;;16.20;99.90;;;;;;5072831;28;20029;-79
2021/09/30 12:19:51;;;;;;;9.88;2.72;;;16.20;99.90;;;;;;5073424;28;20016;-80
2021/09/30 12:22:21;;;;;;;13.82;1.95;;;16.20;99.90;;;;;;5073832;28;20381;-80
2021/09/30 12:24:55;;;;;;;6.75;1.77;;;16.20;99.90;;;;;;5073706;28;20384;-80
2021/09/30 12:27:25;;;;;;;6.18;1.73;;;16.00;99.90;;;;;;5070512;28;20485;-80
2021/09/30 12:29:53;;;;;;;6.68;1.70;;;16.10;99.90;;;;;;5068895;28;20028;-80
2021/09/30 12:32:27;;;;;;;7.80;1.95;;;16.20;99.90;;;;;;5070494;28;20016;-79
2021/09/30 12:34:57;;;;;;;9.20;2.03;;;16.10;99.90;;;;;;5066086;28;20380;-80
2021/09/30 12:37:28;;;;;;;6.30;1.45;;;16.00;99.90;;;;;;5073039;28;20158;-80
2021/09/30 12:40:04;;;;;;;8.57;1.70;;;16.10;99.90;;;;;;5067881;28;20419;-80
2021/09/30 12:42:30;;;;;;;7.65;1.80;;;16.10;99.90;;;;;;5072594;28;20029;-80
2021/09/30 12:44:57;;;;;;;6.82;1.92;;;16.10;99.90;;;;;;5087487;28;20040;-79
2021/09/30 12:47:33;;;;;;;8.25;2.20;;;16.00;99.90;;;;;;5073438;28;20077;-79
2021/09/30 12:50:19;;;;;;;5.45;1.80;;;16.00;99.90;;;;;;5069406;28;20031;-79
2021/09/30 12:52:59;;;;;;;5.20;1.60;;;16.00;99.90;;;;;;5073563;28;20044;-80
2021/09/30 12:55:27;;;;;;;9.98;2.00;;;16.00;99.90;;;;;;5071919;28;20070;-80
2021/09/30 12:57:53;;;;;;;4.63;1.40;;;16.00;99.90;;;;;;5071314;28;20055;-80
2021/09/30 13:00:20;;;;;;;10.18;1.70;;;16.00;99.90;;;;;;5069954;28;20526;-80
2021/09/30 13:02:48;;;;;;;6.82;1.75;;;16.00;99.90;;;;;;5066292;28;20163;-80
2021/09/30 13:05:15;;;;;;;9.07;1.52;;;15.90;99.90;;;;;;5071622;28;20037;-80
2021/09/30 13:07:57;;;;;;;9.32;2.10;;;15.90;99.90;;;;;;5074011;28;20024;-79
2021/09/30 13:10:34;;;;;;;7.93;1.63;;;15.80;99.90;;;;;;5063341;28;20032;-80
2021/09/30 13:13:13;;;;;;;6.60;1.52;;;15.90;99.90;;;;;;5064089;28;20017;-80
2021/09/30 13:15:43;;;;;;;4.47;1.20;;;15.90;99.90;;;;;;5059311;28;20044;-80
2021/09/30 13:18:13;;;;;;;5.95;1.63;;;16.00;99.90;;;;;;5067130;28;20036;-79
2021/09/30 13:20:40;;;;;;;9.38;2.13;;;15.90;99.90;;;;;;5066375;28;21129;-79
2021/09/30 13:23:06;;;;;;;6.45;1.58;;;15.90;99.90;;;;;;5063380;28;20032;-79
2021/09/30 13:25:32;;;;;;;9.20;1.80;;;16.00;99.90;;;;;;5065596;28;20472;-79
2021/09/30 13:27:58;;;;;;;7.03;1.58;;;16.00;99.90;;;;;;5062713;28;20031;-79
2021/09/30 13:30:28;;;;;;;7.78;1.83;;;16.10;99.90;;;;;;5069857;28;20024;-78
2021/09/30 13:32:57;;;;;;;8.88;1.83;;;16.20;99.90;;;;;;5066006;28;20413;-79
2021/09/30 13:35:25;;;;;;;4.53;1.42;;;16.20;99.90;;;;;;5070161;28;20027;-79
2021/09/30 13:37:53;;;;;;;6.78;1.20;;;16.20;99.90;;;;;;5070415;28;20046;-79
2021/09/30 13:40:19;;;;;;;9.63;1.60;;;16.10;99.90;;;;;;5066997;28;21749;-79
2021/09/30 13:42:45;;;;;;;9.00;1.60;;;16.10;99.90;;;;;;5088541;28;20380;-79
2021/09/30 13:45:13;;;;;;;6.03;1.52;;;16.20;99.90;;;;;;5063812;28;20391;-79
2021/09/30 13:47:39;;;;;;;6.88;1.48;;;16.30;99.90;;;;;;5067182;28;20775;-79
2021/09/30 13:50:08;;;;;;;5.93;1.45;;;16.40;99.90;;;;;;5064770;28;20107;-79
2021/09/30 13:52:34;;;;;;;7.93;2.05;;;16.40;99.90;;;;;;5060541;28;20489;-79
2021/09/30 13:55:00;;;;;;;4.55;1.58;;;16.40;99.90;;;;;;5067488;28;20040;-79
2021/09/30 13:57:25;;;;;;;3.85;1.35;;;16.30;99.90;;;;;;5065576;28;20119;-79
2021/09/30 13:59:51;;;;;;;7.47;1.52;;;16.40;99.90;;;;;;5081505;28;20162;-80
2021/09/30 14:02:17;;;;;;;5.38;1.30;;;16.50;99.90;;;;;;5077024;28;20043;-78
2021/09/30 14:04:43;;;;;;;8.85;1.65;;;16.50;99.90;;;;;;5069490;28;20031;-79
2021/09/30 14:07:09;;;;;;;6.15;1.20;;;16.40;99.90;;;;;;5070818;28;20028;-78
2021/09/30 14:09:36;;;;;;;7.20;1.80;;;16.40;99.90;;;;;;5077796;28;20021;-80
2021/09/30 14:12:04;;;;;;;4.30;1.48;;;16.50;99.90;;;;;;5079799;28;20024;-80
2021/09/30 14:14:30;;;;;;;8.05;1.95;;;16.50;99.90;;;;;;5073601;28;20015;-80
2021/09/30 14:16:57;;;;;;;5.07;1.63;;;16.50;99.90;;;;;;5061272;28;20058;-81
2021/09/30 14:19:27;;;;;;;8.98;1.33;;;16.60;99.90;;;;;;5068072;28;20028;-80
2021/09/30 14:21:54;;;;;;;6.60;1.30;;;16.60;99.90;;;;;;5073377;28;20107;-80
2021/09/30 14:24:21;;;;;;;11.60;1.98;;;16.60;99.90;;;;;;5073390;28;20036;-76
2021/09/30 14:26:47;;;;;;;9.48;1.60;;;16.70;99.90;;;;;;5070575;28;20086;-78
2021/09/30 14:29:12;;;;;;;5.50;1.55;;;16.50;99.90;;;;;;5068946;28;20024;-80
2021/09/30 14:31:38;;;;;;;9.25;1.60;;;16.50;99.90;;;;;;5073647;28;20023;-76
2021/09/30 14:34:04;;;;;;;9.80;1.83;;;16.50;99.90;;;;;;5067347;28;20525;-82
2021/09/30 14:36:30;;;;;;;7.22;1.30;;;16.50;99.90;;;;;;5062448;28;20024;-82
2021/09/30 14:38:56;;;;;;;7.85;1.33;;;16.50;99.90;;;;;;5071662;28;20574;-82
2021/09/30 14:41:23;;;;;;;8.02;1.30;;;16.50;99.90;;;;;;5065677;28;20086;-77
2021/09/30 14:43:49;;;;;;;5.47;1.33;;;16.50;99.90;;;;;;5070534;28;20100;-78
2021/09/30 14:46:17;;;;;;;7.55;1.63;;;16.50;99.90;;;;;;5070366;28;20449;-80
2021/09/30 14:48:43;;;;;;;9.25;1.83;;;16.40;99.90;;;;;;5069834;28;20104;-80
2021/09/30 14:51:11;;;;;;;4.18;1.30;;;16.50;99.90;;;;;;5071434;28;20035;-80
2021/09/30 14:53:38;;;;;;;13.02;2.08;;;16.60;99.90;;;;;;5072054;28;20024;-81
2021/09/30 14:56:05;;;;;;;9.35;1.80;;;16.50;99.90;;;;;;5070245;28;20028;-81
2021/09/30 14:58:32;;;;;;;9.13;1.52;;;16.50;99.90;;;;;;5069760;28;20496;-82
2021/09/30 15:00:57;;;;;;;11.45;1.95;;;16.60;99.90;;;;;;5067644;28;20028;-79
2021/09/30 15:03:23;;;;;;;5.70;1.65;;;16.50;99.90;;;;;;5069042;28;20066;-81
2021/09/30 15:05:49;;;;;;;3.25;1.30;;;16.40;99.90;;;;;;5066157;28;20562;-79
2021/09/30 15:08:14;;;;;;;6.47;1.58;;;16.40;99.90;;;;;;5067143;28;20021;-80
2021/09/30 15:10:40;;;;;;;6.68;1.77;;;16.50;99.90;;;;;;5068285;28;20131;-81
2021/09/30 15:13:06;;;;;;;6.68;1.55;;;16.50;99.90;;;;;;5066616;28;20028;-80
2021/09/30 15:15:33;;;;;;;8.02;1.77;;;16.50;99.90;;;;;;5069511;28;20028;-80
2021/09/30 15:18:07;;;;;;;6.20;1.80;;;16.50;99.90;;;;;;5066621;28;20314;-79
2021/09/30 15:23:17;;;;;;;6.10;1.25;;;16.40;99.90;;;;;;5062395;28;20427;-79
2021/09/30 15:25:45;;;;;;;5.93;2.00;;;16.50;99.90;;;;;;5072200;28;20488;-78
2021/09/30 15:28:14;;;;;;;8.65;1.50;;;16.50;99.90;;;;;;5073241;28;20403;-80
2021/09/30 15:30:41;;;;;;;10.88;2.35;;;16.40;99.90;;;;;;5071090;28;20031;-79
2021/09/30 15:33:10;;;;;;;5.32;1.70;;;16.30;99.90;;;;;;5063167;28;20032;-78
2021/09/30 15:35:36;;;;;;;11.80;1.92;;;16.20;99.90;;;;;;5067948;28;20024;-80
2021/09/30 15:38:03;;;;;;;7.07;2.45;;;16.20;99.90;;;;;;5071395;28;20059;-80
2021/09/30 15:40:29;;;;;;;6.13;1.40;;;16.30;99.90;;;;;;5073285;28;20376;-80
2021/09/30 15:42:54;;;;;;;8.05;1.33;;;16.30;99.90;;;;;;5069201;28;20012;-80
2021/09/30 15:45:21;;;;;;;5.25;1.38;;;16.30;99.90;;;;;;5072308;28;20496;-81
2021/09/30 15:47:47;;;;;;;5.97;1.50;;;16.20;99.90;;;;;;5070409;28;20047;-80
2021/09/30 15:50:13;;;;;;;6.47;2.13;;;16.20;99.90;;;;;;5073646;28;20464;-79